Time;durP1;ratioP1;P1;durP2;ratioP2;P2;SDS_P1;SDS_P2;PMS_P1;PMS_P2;Temp;Humidity;BMP_temperature;BMP_pressure;BME280_temperature;BME280_humidity;BME280_pressure;Samples;Min_cycle;Max_cycle;Signal;HPM_P1;HPM_P2
2024/01/12 00:02:25;;;;;;;17.73;15.47;;;;;;;19.03;42.33;98567.63;5047056;28;20210;-26
2024/01/12 00:04:52;;;;;;;17.17;15.27;;;;;;;19.00;42.02;98565.81;5036312;28;20202;-27
2024/01/12 00:07:18;;;;;;;17.70;15.80;;;;;;;19.04;41.80;98564.31;5043310;28;20214;-28
2024/01/12 00:09:45;;;;;;;17.17;14.67;;;;;;;19.02;41.79;98566.78;5040935;28;20205;-27
2024/01/12 00:12:11;;;;;;;16.20;14.50;;;;;;;18.98;42.27;98576.72;5050835;28;20233;-26
2024/01/12 00:14:38;;;;;;;17.13;14.67;;;;;;;18.96;42.19;98570.66;5046890;28;20672;-26
2024/01/12 00:17:05;;;;;;;18.27;15.60;;;;;;;18.95;41.94;98574.00;5038463;28;20201;-30
2024/01/12 00:19:31;;;;;;;17.73;15.27;;;;;;;18.94;42.25;98569.66;5033607;28;20225;-27
2024/01/12 00:21:58;;;;;;;18.47;15.70;;;;;;;18.94;42.26;98573.09;5046869;28;20197;-26
2024/01/12 00:24:24;;;;;;;18.70;16.10;;;;;;;18.96;41.99;98575.75;5049761;28;20246;-26
2024/01/12 00:26:51;;;;;;;19.40;16.03;;;;;;;18.97;42.14;98578.38;5040479;28;20253;-28
2024/01/12 00:29:18;;;;;;;18.93;16.13;;;;;;;18.98;42.13;98581.81;5041293;28;20264;-27
2024/01/12 00:31:45;;;;;;;18.20;15.40;;;;;;;18.96;42.02;98568.09;5046332;28;20208;-26
2024/01/12 00:34:11;;;;;;;17.43;15.53;;;;;;;18.99;42.38;98570.81;5041496;28;20198;-29
2024/01/12 00:36:38;;;;;;;18.03;15.40;;;;;;;19.01;41.90;98576.88;5042510;28;20197;-27
2024/01/12 00:39:05;;;;;;;16.17;14.47;;;;;;;19.03;42.09;98588.00;5055606;22;20284;-25
2024/01/12 00:41:31;;;;;;;17.63;15.40;;;;;;;19.03;42.17;98590.56;5050429;28;20264;-25
2024/01/12 00:43:59;;;;;;;17.60;15.70;;;;;;;19.05;41.99;98591.53;5040573;28;20294;-25
2024/01/12 00:46:26;;;;;;;18.10;15.63;;;;;;;19.05;41.99;98589.00;5032195;28;20631;-25
2024/01/12 00:48:52;;;;;;;18.70;16.20;;;;;;;19.05;42.30;98589.00;5041697;28;20647;-25
2024/01/12 00:51:19;;;;;;;18.37;15.00;;;;;;;19.00;42.13;98585.31;5042734;28;20201;-25
2024/01/12 00:53:45;;;;;;;18.70;15.77;;;;;;;18.97;42.34;98593.66;5050092;28;20213;-25
2024/01/12 00:56:12;;;;;;;16.27;14.50;;;;;;;18.94;42.12;98588.38;5035954;28;20202;-25
2024/01/12 00:58:39;;;;;;;17.07;14.43;;;;;;;18.94;42.33;98590.06;5040013;28;20272;-25
2024/01/12 01:01:05;;;;;;;17.83;15.03;;;;;;;18.94;42.43;98590.06;5036533;28;20245;-25
2024/01/12 01:03:32;;;;;;;16.93;15.17;;;;;;;18.96;42.42;98589.38;5041578;28;20636;-25
2024/01/12 01:05:58;;;;;;;17.33;15.53;;;;;;;18.97;42.11;98591.13;5040481;28;20216;-25
2024/01/12 01:08:25;;;;;;;18.33;15.70;;;;;;;18.99;42.13;98598.84;5042343;28;20230;-25
2024/01/12 01:10:52;;;;;;;18.50;16.37;;;;;;;18.99;42.03;98594.63;5046273;28;20583;-25
2024/01/12 01:13:19;;;;;;;17.70;15.33;;;;;;;18.96;42.09;98588.47;5037885;28;20247;-25
2024/01/12 01:15:45;;;;;;;17.33;14.83;;;;;;;19.01;42.02;98600.66;5048086;28;20293;-25
2024/01/12 01:18:12;;;;;;;19.20;15.27;;;;;;;19.02;42.23;98597.34;5034529;28;20217;-25
2024/01/12 01:20:39;;;;;;;17.17;14.80;;;;;;;19.04;42.28;98605.94;5044925;28;20644;-25
2024/01/12 01:23:05;;;;;;;17.47;15.53;;;;;;;19.05;41.77;98611.91;5037313;28;20241;-25
2024/01/12 01:25:32;;;;;;;18.20;15.90;;;;;;;19.05;42.07;98612.81;5044460;28;20251;-25
2024/01/12 01:28:00;;;;;;;17.10;15.13;;;;;;;19.06;42.06;98609.47;5038669;28;20629;-25
2024/01/12 01:30:27;;;;;;;17.93;15.53;;;;;;;19.01;42.09;98610.00;5042247;28;20347;-25
2024/01/12 01:32:53;;;;;;;16.70;14.80;;;;;;;18.98;42.30;98615.78;5048607;28;20661;-25
2024/01/12 01:35:21;;;;;;;15.70;14.00;;;;;;;18.96;42.21;98616.50;5042936;28;20213;-26
2024/01/12 01:37:50;;;;;;;18.20;15.60;;;;;;;18.95;42.32;98607.13;5038567;28;20711;-25
2024/01/12 01:40:16;;;;;;;16.77;14.97;;;;;;;18.94;42.22;98597.69;5036190;28;20202;-25
2024/01/12 01:42:46;;;;;;;17.37;15.47;;;;;;;18.97;42.31;98597.88;5051781;28;20232;-25
2024/01/12 01:45:13;;;;;;;18.53;15.63;;;;;;;18.98;42.39;98592.00;5044027;28;20205;-25
2024/01/12 01:47:41;;;;;;;16.50;14.70;;;;;;;19.00;42.08;98595.50;5026825;28;20217;-25
2024/01/12 01:50:08;;;;;;;18.33;15.40;;;;;;;19.00;42.23;98600.59;5038481;28;20207;-25
2024/01/12 01:52:34;;;;;;;17.53;15.33;;;;;;;19.01;42.33;98589.63;5035783;28;20209;-25
2024/01/12 01:55:01;;;;;;;17.53;15.40;;;;;;;18.98;42.07;98581.81;5038032;28;20205;-25
2024/01/12 01:57:27;;;;;;;16.37;14.47;;;;;;;19.04;42.26;98592.34;5038469;28;20232;-25
2024/01/12 01:59:54;;;;;;;16.10;14.27;;;;;;;19.04;41.91;98585.56;5038097;28;20211;-25
2024/01/12 02:02:21;;;;;;;17.00;15.20;;;;;;;19.05;42.35;98587.34;5032137;28;20472;-25
2024/01/12 02:04:50;;;;;;;16.10;14.27;;;;;;;19.06;42.22;98586.53;5032341;28;20292;-25
2024/01/12 02:07:16;;;;;;;17.10;15.30;;;;;;;19.07;42.17;98582.31;5031361;28;20245;-25
2024/01/12 02:09:43;;;;;;;16.10;14.40;;;;;;;19.01;42.11;98584.53;5041333;28;20304;-25
2024/01/12 02:12:10;;;;;;;16.30;14.57;;;;;;;18.98;42.47;98584.34;5047978;28;20254;-25
2024/01/12 02:14:36;;;;;;;15.27;13.33;;;;;;;18.94;42.54;98579.84;5047789;28;20283;-25
2024/01/12 02:17:03;;;;;;;16.03;14.10;;;;;;;18.95;42.35;98591.84;5044412;28;20189;-25
2024/01/12 02:19:31;;;;;;;16.03;14.33;;;;;;;18.95;42.36;98586.72;5036586;28;20304;-25
2024/01/12 02:21:57;;;;;;;19.47;15.73;;;;;;;18.96;42.68;98579.19;5039149;28;20197;-25
2024/01/12 02:24:24;;;;;;;18.17;15.47;;;;;;;18.99;42.23;98575.91;5035055;28;20233;-25
2024/01/12 02:26:50;;;;;;;18.33;15.40;;;;;;;18.99;42.40;98576.81;5031805;28;20197;-25
2024/01/12 02:29:17;;;;;;;17.47;15.10;;;;;;;18.99;42.48;98574.25;5032127;28;20213;-25
2024/01/12 02:31:43;;;;;;;18.00;15.27;;;;;;;19.01;42.30;98575.19;5034160;28;20200;-25
2024/01/12 02:34:10;;;;;;;16.70;14.80;;;;;;;18.98;42.27;98567.38;5040200;28;20210;-25
2024/01/12 02:36:37;;;;;;;16.30;14.60;;;;;;;19.02;42.21;98574.41;5044671;28;20263;-25
2024/01/12 02:39:05;;;;;;;17.30;15.03;;;;;;;19.03;42.25;98570.19;5034438;28;20822;-25
2024/01/12 02:41:31;;;;;;;17.27;14.83;;;;;;;19.05;42.12;98573.69;5032188;28;20573;-25
2024/01/12 02:43:58;;;;;;;16.27;14.57;;;;;;;19.06;42.23;98573.78;5032995;28;20204;-25
2024/01/12 02:46:25;;;;;;;15.60;14.00;;;;;;;19.07;42.29;98569.59;5035320;28;20328;-25
2024/01/12 02:48:51;;;;;;;16.07;14.07;;;;;;;19.01;42.39;98579.44;5045543;28;20755;-25
2024/01/12 02:51:18;;;;;;;16.13;14.20;;;;;;;18.97;42.20;98578.38;5034533;28;20197;-25
2024/01/12 02:53:44;;;;;;;17.13;14.40;;;;;;;18.94;42.65;98578.19;5039705;28;20208;-25
2024/01/12 02:56:11;;;;;;;16.00;14.30;;;;;;;18.96;42.20;98575.75;5037348;28;20201;-25
2024/01/12 02:58:39;;;;;;;17.47;14.70;;;;;;;18.96;42.35;98580.84;5037700;28;20239;-25
2024/01/12 03:01:06;;;;;;;17.17;15.23;;;;;;;18.97;42.01;98592.78;5038635;28;20243;-25
2024/01/12 03:03:33;;;;;;;19.60;16.37;;;;;;;18.94;42.22;98578.19;5035243;28;20580;-25
2024/01/12 03:06:01;;;;;;;16.83;14.93;;;;;;;18.99;42.24;98587.00;5038362;28;20205;-25
2024/01/12 03:08:28;;;;;;;15.97;14.27;;;;;;;19.01;42.31;98589.63;5034672;28;20225;-25
2024/01/12 03:10:54;;;;;;;16.77;14.47;;;;;;;19.01;42.40;98592.16;5031348;28;20767;-25
2024/01/12 03:13:21;;;;;;;17.07;14.50;;;;;;;19.00;42.30;98593.84;5039277;28;20201;-25
2024/01/12 03:15:48;;;;;;;17.53;14.67;;;;;;;19.02;42.20;98597.34;5039575;28;20197;-25
2024/01/12 03:18:14;;;;;;;17.23;14.97;;;;;;;19.03;42.63;98590.56;5044484;28;20636;-25
2024/01/12 03:20:41;;;;;;;18.00;15.20;;;;;;;19.05;42.28;98583.91;5040074;28;20205;-25
2024/01/12 03:23:08;;;;;;;16.00;13.57;;;;;;;19.05;42.26;98592.44;5036353;28;20229;-25
2024/01/12 03:25:34;;;;;;;16.70;14.60;;;;;;;19.04;42.11;98590.66;5053125;28;20634;-25
2024/01/12 03:28:01;;;;;;;17.23;14.57;;;;;;;18.99;42.18;98593.75;5048616;28;20304;-25
2024/01/12 03:30:27;;;;;;;16.17;14.33;;;;;;;18.95;42.54;98595.22;5043290;28;20229;-25
2024/01/12 03:32:54;;;;;;;16.50;14.53;;;;;;;18.95;42.46;98581.63;5046936;28;20236;-25
2024/01/12 03:35:21;;;;;;;16.20;14.33;;;;;;;18.94;42.29;98590.94;5049224;28;20629;-25
2024/01/12 03:37:48;;;;;;;18.40;15.40;;;;;;;18.94;42.38;98590.94;5040179;28;20217;-25
2024/01/12 03:40:14;;;;;;;17.20;15.23;;;;;;;18.96;42.23;98599.56;5043337;28;20233;-25
2024/01/12 03:42:41;;;;;;;16.43;14.73;;;;;;;18.97;42.36;98606.41;5053140;28;20208;-25
2024/01/12 03:45:08;;;;;;;18.43;15.50;;;;;;;18.98;42.41;98600.50;5047981;28;20204;-25
2024/01/12 03:47:35;;;;;;;17.23;14.87;;;;;;;18.99;42.37;98599.72;5042345;28;20244;-25
2024/01/12 03:50:02;;;;;;;17.43;15.37;;;;;;;18.99;42.38;98596.28;5040598;28;20205;-25
2024/01/12 03:52:28;;;;;;;17.90;15.60;;;;;;;19.00;42.32;98600.59;5049317;28;20207;-25
2024/01/12 03:54:55;;;;;;;16.47;14.57;;;;;;;19.03;42.29;98606.75;5046427;28;20228;-25
2024/01/12 03:57:21;;;;;;;16.03;14.33;;;;;;;19.05;42.35;98601.72;5044837;28;20198;-25
2024/01/12 03:59:48;;;;;;;17.27;15.17;;;;;;;19.04;42.36;98598.28;5053972;28;20259;-25
2024/01/12 04:02:15;;;;;;;17.37;15.00;;;;;;;19.06;42.31;98603.47;5040886;28;20256;-25
2024/01/12 04:04:42;;;;;;;17.43;14.47;;;;;;;18.99;42.15;98599.72;5046744;28;20547;-27
2024/01/12 04:07:08;;;;;;;15.53;13.87;;;;;;;18.98;42.53;98607.28;5041364;28;20312;-25
2024/01/12 04:09:35;;;;;;;16.53;13.87;;;;;;;18.96;42.24;98607.19;5050866;28;20255;-25
2024/01/12 04:12:02;;;;;;;16.03;14.20;;;;;;;18.95;42.41;98607.13;5044541;28;20205;-25
2024/01/12 04:14:29;;;;;;;15.47;13.77;;;;;;;18.94;42.53;98606.22;5048202;28;20204;-25
2024/01/12 04:16:59;;;;;;;16.43;14.37;;;;;;;18.95;42.47;98607.13;5051455;28;20197;-25
2024/01/12 04:19:26;;;;;;;17.00;15.00;;;;;;;18.97;42.31;98606.41;5054348;28;20245;-25
2024/01/12 04:21:52;;;;;;;16.23;14.50;;;;;;;18.98;42.21;98609.84;5053934;28;20298;-25
2024/01/12 04:24:19;;;;;;;17.90;15.33;;;;;;;19.00;42.18;98605.69;5045526;28;20269;-25
2024/01/12 04:26:45;;;;;;;16.60;13.83;;;;;;;19.01;42.42;98599.81;5040675;28;20201;-25
2024/01/12 04:29:12;;;;;;;15.83;14.17;;;;;;;19.02;42.38;98612.63;5053739;28;20221;-25
2024/01/12 04:31:40;;;;;;;17.50;14.67;;;;;;;19.02;42.37;98610.09;5043173;28;20212;-25
2024/01/12 04:34:07;;;;;;;16.73;14.37;;;;;;;19.03;42.42;98613.50;5048897;28;20676;-25
2024/01/12 04:36:34;;;;;;;16.23;14.40;;;;;;;19.05;42.15;98617.00;5044904;28;20198;-25
2024/01/12 04:39:00;;;;;;;17.13;14.37;;;;;;;19.06;42.26;98626.41;5049489;28;20828;-25
2024/01/12 04:41:27;;;;;;;16.40;14.23;;;;;;;19.05;42.22;98638.28;5052632;28;20197;-25
2024/01/12 04:43:53;;;;;;;15.80;14.10;;;;;;;19.02;42.37;98627.03;5053443;28;20201;-25
2024/01/12 04:46:20;;;;;;;16.00;13.93;;;;;;;18.97;42.54;98619.13;5053720;28;20201;-25
2024/01/12 04:48:46;;;;;;;14.93;13.30;;;;;;;18.96;42.63;98613.94;5045159;28;20279;-25
2024/01/12 04:51:13;;;;;;;15.97;13.97;;;;;;;18.94;42.22;98615.53;5053567;28;20205;-25
2024/01/12 04:53:40;;;;;;;15.90;14.20;;;;;;;18.94;42.40;98623.16;5044959;28;20239;-25
2024/01/12 04:56:06;;;;;;;17.73;15.37;;;;;;;18.94;42.16;98620.63;5048986;28;20212;-25
2024/01/12 04:58:33;;;;;;;17.10;14.60;;;;;;;18.96;42.08;98619.03;5052896;28;20213;-26
2024/01/12 05:01:00;;;;;;;16.63;14.20;;;;;;;18.98;42.22;98623.44;5049784;28;20229;-25
2024/01/12 05:03:26;;;;;;;16.07;14.40;;;;;;;18.99;42.12;98625.19;5039160;28;20208;-25
2024/01/12 05:05:53;;;;;;;16.40;14.60;;;;;;;19.02;42.13;98617.72;5051373;28;20228;-25
2024/01/12 05:08:20;;;;;;;16.43;14.33;;;;;;;19.03;42.35;98621.13;5053248;28;20224;-25
2024/01/12 05:10:47;;;;;;;17.20;14.33;;;;;;;19.02;42.15;98625.38;5036720;28;20672;-32
2024/01/12 05:13:14;;;;;;;15.87;13.73;;;;;;;19.03;42.32;98621.13;5046822;28;20243;-25
2024/01/12 05:15:40;;;;;;;17.80;14.50;;;;;;;19.05;42.12;98629.75;5044846;28;20200;-25
2024/01/12 05:18:07;;;;;;;16.63;14.80;;;;;;;19.05;42.03;98630.66;5052992;28;20217;-25
2024/01/12 05:20:34;;;;;;;16.37;14.30;;;;;;;19.05;42.13;98635.75;5040031;28;20200;-25
2024/01/12 05:23:00;;;;;;;15.83;13.80;;;;;;;19.02;42.05;98634.69;5035940;28;20280;-25
2024/01/12 05:25:29;;;;;;;17.27;14.43;;;;;;;18.98;42.33;98643.81;5050790;28;20732;-25
2024/01/12 05:27:56;;;;;;;15.57;13.50;;;;;;;18.96;42.21;98644.53;5038528;28;20229;-25
2024/01/12 05:30:22;;;;;;;15.57;13.83;;;;;;;18.94;42.54;98652.06;5043552;28;20247;-25
2024/01/12 05:32:49;;;;;;;15.50;13.77;;;;;;;18.93;42.27;98640.13;5050090;28;20659;-25
2024/01/12 05:35:16;;;;;;;17.33;15.40;;;;;;;18.95;42.27;98633.44;5048360;28;20246;-25
2024/01/12 05:37:42;;;;;;;16.93;14.90;;;;;;;18.97;42.63;98623.34;5050953;28;20232;-25
2024/01/12 05:40:10;;;;;;;16.87;14.87;;;;;;;18.99;42.36;98627.75;5052641;28;20671;-25
2024/01/12 05:42:36;;;;;;;16.23;14.47;;;;;;;19.00;42.52;98626.94;5051423;28;20231;-25
2024/01/12 05:45:03;;;;;;;16.97;14.83;;;;;;;19.01;42.28;98630.38;5036506;28;20204;-25
2024/01/12 05:47:30;;;;;;;16.80;14.20;;;;;;;19.02;42.26;98637.22;5051821;28;20255;-25
2024/01/12 05:49:57;;;;;;;15.90;14.20;;;;;;;19.04;42.40;98643.28;5052245;28;20216;-25
2024/01/12 05:52:23;;;;;;;15.50;13.90;;;;;;;19.05;42.17;98638.28;5042568;28;20194;-25
2024/01/12 05:54:51;;;;;;;15.37;13.77;;;;;;;19.07;42.42;98635.81;5035044;28;20644;-25
2024/01/12 05:57:18;;;;;;;15.53;13.53;;;;;;;19.08;42.21;98635.03;5047311;28;20220;-25
2024/01/12 05:59:44;;;;;;;17.80;14.70;;;;;;;19.09;42.36;98634.22;5047667;28;20214;-25
2024/01/12 06:02:14;;;;;;;15.10;13.50;;;;;;;19.03;42.43;98636.41;5052213;28;20288;-25
2024/01/12 06:04:41;;;;;;;14.73;13.07;;;;;;;19.00;42.49;98634.59;5051950;28;20204;-25
2024/01/12 06:07:08;;;;;;;15.17;13.57;;;;;;;18.98;42.89;98641.25;5052086;28;20235;-25
2024/01/12 06:09:35;;;;;;;15.23;13.63;;;;;;;18.97;42.63;98647.16;5051954;28;20232;-25
2024/01/12 06:12:02;;;;;;;16.33;14.40;;;;;;;18.96;42.47;98658.16;5050511;28;20251;-25
2024/01/12 06:14:29;;;;;;;17.00;15.20;;;;;;;18.99;41.93;98662.53;5045558;28;20193;-25
2024/01/12 06:16:56;;;;;;;17.40;14.70;;;;;;;19.01;42.24;98660.97;5044082;28;20567;-26
2024/01/12 06:19:24;;;;;;;16.97;14.57;;;;;;;19.03;42.30;98669.53;5048615;28;20227;-25
2024/01/12 06:21:50;;;;;;;16.17;14.43;;;;;;;19.03;42.21;98667.88;5049022;28;20616;-25
2024/01/12 06:24:17;;;;;;;16.77;14.67;;;;;;;19.03;42.09;98662.78;5047272;28;20198;-25
2024/01/12 06:26:43;;;;;;;17.27;14.70;;;;;;;19.06;42.22;98665.50;5039355;28;20244;-25
2024/01/12 06:29:10;;;;;;;16.30;14.53;;;;;;;19.05;42.13;98657.78;5043297;28;20590;-25
2024/01/12 06:31:37;;;;;;;16.10;14.13;;;;;;;19.08;42.23;98655.41;5051846;28;20205;-25
2024/01/12 06:34:04;;;;;;;17.13;14.67;;;;;;;19.09;42.31;98668.22;5045837;28;20204;-25
2024/01/12 06:36:30;;;;;;;15.10;13.50;;;;;;;19.09;42.28;98657.16;5046272;28;20193;-25
2024/01/12 06:38:57;;;;;;;14.73;13.23;;;;;;;19.10;42.27;98657.25;5066975;22;20707;-27
2024/01/12 06:41:24;;;;;;;15.97;14.27;;;;;;;19.04;42.15;98646.69;5052323;28;20209;-27
2024/01/12 06:43:50;;;;;;;16.17;13.83;;;;;;;19.00;42.39;98647.31;5050953;28;20201;-26
2024/01/12 06:46:17;;;;;;;15.80;14.10;;;;;;;18.97;42.31;98639.50;5051620;28;20585;-28
2024/01/12 06:48:44;;;;;;;15.27;13.13;;;;;;;18.98;42.38;98654.00;5050128;28;20298;-26
2024/01/12 06:51:10;;;;;;;15.70;13.90;;;;;;;18.98;42.86;98653.13;5045248;28;20207;-26
2024/01/12 06:53:37;;;;;;;16.23;14.17;;;;;;;19.01;42.37;98651.63;5051590;28;20554;-26
2024/01/12 06:56:05;;;;;;;16.67;13.93;;;;;;;19.03;42.08;98660.25;5050015;28;20292;-28
2024/01/12 06:58:32;;;;;;;16.43;14.27;;;;;;;19.04;42.37;98656.88;5051486;28;20217;-28
2024/01/12 07:00:58;;;;;;;15.57;13.93;;;;;;;18.99;42.28;98644.69;5051188;28;20560;-27
2024/01/12 07:03:25;;;;;;;15.00;13.40;;;;;;;19.05;42.31;98647.59;5051392;28;20694;-27
2024/01/12 07:05:53;;;;;;;16.87;13.97;;;;;;;19.09;42.27;98662.25;5051512;28;20228;-26
2024/01/12 07:08:22;;;;;;;15.80;13.77;;;;;;;19.08;42.39;98661.41;5051532;28;20204;-35
2024/01/12 07:10:48;;;;;;;14.00;12.60;;;;;;;19.10;42.12;98672.53;5051503;28;20201;-27
2024/01/12 07:13:15;;;;;;;15.20;13.60;;;;;;;19.11;42.31;98665.78;5051468;28;20201;-27
2024/01/12 07:15:42;;;;;;;16.30;13.63;;;;;;;19.10;42.33;98669.13;5050981;28;20212;-26
2024/01/12 07:18:08;;;;;;;14.17;12.53;;;;;;;19.07;42.30;98668.94;5051262;28;20650;-27
2024/01/12 07:20:35;;;;;;;15.37;12.90;;;;;;;19.05;42.76;98667.97;5051341;28;20564;-27
2024/01/12 07:23:02;;;;;;;14.57;12.67;;;;;;;19.03;42.55;98674.63;5051371;28;20627;-26
2024/01/12 07:25:29;;;;;;;14.63;13.07;;;;;;;19.01;42.26;98676.25;5049879;28;20232;-26
2024/01/12 07:27:55;;;;;;;13.40;12.00;;;;;;;19.00;42.58;98671.91;5050749;28;20212;-27
2024/01/12 07:30:22;;;;;;;14.83;12.60;;;;;;;19.01;42.18;98679.66;5051723;28;20228;-26
2024/01/12 07:32:49;;;;;;;15.20;13.60;;;;;;;18.99;42.17;98677.81;5051158;28;20610;-27
2024/01/12 07:35:16;;;;;;;13.97;12.43;;;;;;;19.05;42.36;98685.81;5043441;28;20201;-27
2024/01/12 07:37:43;;;;;;;14.13;12.63;;;;;;;19.05;41.77;98696.88;5051192;28;20207;-26
2024/01/12 07:40:10;;;;;;;12.67;11.37;;;;;;;19.08;42.17;98698.72;5050599;28;20225;-29
2024/01/12 07:42:37;;;;;;;14.57;12.83;;;;;;;19.08;42.46;98694.50;5050909;28;20759;-27
2024/01/12 07:45:05;;;;;;;13.03;11.63;;;;;;;19.10;42.21;98695.47;5051337;28;20211;-26
2024/01/12 07:47:31;;;;;;;14.43;12.90;;;;;;;19.11;41.66;98691.25;5048803;28;20672;-28
2024/01/12 07:49:58;;;;;;;12.93;11.60;;;;;;;19.11;42.45;98681.06;5050797;28;20256;-27
2024/01/12 07:52:25;;;;;;;13.50;11.97;;;;;;;19.13;42.17;98702.41;5051571;28;20646;-26
2024/01/12 07:54:52;;;;;;;13.80;11.83;;;;;;;19.14;42.17;98707.59;5050564;28;20236;-32
2024/01/12 07:57:18;;;;;;;13.23;11.83;;;;;;;19.09;42.21;98703.91;5051423;28;20209;-27
2024/01/12 07:59:45;;;;;;;12.83;11.53;;;;;;;19.05;42.28;98701.97;5051105;28;20446;-27
2024/01/12 08:02:11;;;;;;;13.80;12.07;;;;;;;19.03;42.17;98701.00;5050934;28;20201;-27
2024/01/12 08:04:38;;;;;;;12.80;11.43;;;;;;;19.02;42.38;98703.47;5051161;28;20209;-26
2024/01/12 08:07:06;;;;;;;13.20;11.33;;;;;;;19.00;42.44;98708.47;5045240;28;20243;-30
2024/01/12 08:09:33;;;;;;;13.80;12.30;;;;;;;19.02;42.36;98709.44;5054694;28;20231;-26
2024/01/12 08:11:59;;;;;;;13.40;11.97;;;;;;;19.04;42.08;98705.31;5054480;28;20200;-27
2024/01/12 08:14:26;;;;;;;13.23;11.83;;;;;;;19.06;42.45;98705.38;5054483;28;20208;-27
2024/01/12 08:16:54;;;;;;;13.80;12.30;;;;;;;19.06;42.27;98702.84;5054430;28;20208;-31
2024/01/12 08:19:21;;;;;;;13.27;11.50;;;;;;;19.07;42.41;98707.16;5046747;28;20256;-27
2024/01/12 08:21:47;;;;;;;13.70;12.23;;;;;;;19.09;42.42;98703.00;5054409;28;20295;-27
2024/01/12 08:24:21;;;;;;;13.00;11.60;;;;;;;19.10;42.42;98720.09;5041282;28;20282;-27
2024/01/12 08:26:48;;;;;;;13.20;11.50;;;;;;;19.10;42.39;98722.63;5054334;28;20294;-26
2024/01/12 08:29:15;;;;;;;13.83;12.33;;;;;;;19.12;41.93;98726.13;5054041;28;20237;-26
2024/01/12 08:31:42;;;;;;;13.20;11.20;;;;;;;19.12;42.34;98721.91;5054001;28;20668;-26
2024/01/12 08:34:09;;;;;;;12.43;11.13;;;;;;;19.12;42.48;98721.03;5035978;28;20216;-26
2024/01/12 08:36:36;;;;;;;12.67;11.40;;;;;;;19.07;42.48;98714.81;5054205;28;20291;-28
2024/01/12 08:39:03;;;;;;;12.80;11.40;;;;;;;19.03;42.55;98710.31;5053746;28;20224;-27
2024/01/12 08:41:30;;;;;;;12.50;10.97;;;;;;;19.00;42.66;98707.59;5054215;28;20207;-35
2024/01/12 08:43:57;;;;;;;12.50;11.20;;;;;;;19.01;42.39;98711.91;5054251;28;20659;-33
2024/01/12 08:46:24;;;;;;;12.83;10.87;;;;;;;19.01;42.34;98711.91;5053737;28;20201;-28
2024/01/12 08:48:52;;;;;;;12.83;11.47;;;;;;;19.02;41.97;98714.53;5053935;28;20233;-27
2024/01/12 08:51:19;;;;;;;12.40;11.10;;;;;;;19.05;41.93;98722.38;5053708;28;20667;-27
2024/01/12 08:53:46;;;;;;;13.30;11.90;;;;;;;19.05;42.10;98716.38;5053871;28;20219;-26
2024/01/12 08:56:12;;;;;;;13.03;11.23;;;;;;;19.07;42.27;98710.56;5053820;28;20209;-28
2024/01/12 08:58:39;;;;;;;12.27;10.97;;;;;;;19.08;42.40;98707.25;5053795;28;20700;-27
2024/01/12 09:01:06;;;;;;;11.67;10.47;;;;;;;19.09;42.34;98710.66;5048566;28;20205;-26
2024/01/12 09:03:32;;;;;;;11.63;10.43;;;;;;;19.10;42.33;98712.44;5053387;28;20200;-32
2024/01/12 09:05:59;;;;;;;12.30;11.00;;;;;;;19.11;42.17;98716.72;5053694;28;20208;-27
2024/01/12 09:08:26;;;;;;;12.93;10.90;;;;;;;19.11;42.19;98726.94;5053380;28;20263;-26
2024/01/12 09:10:53;;;;;;;12.50;11.20;;;;;;;19.12;42.34;98729.56;5053421;28;20308;-30
2024/01/12 09:13:19;;;;;;;13.83;11.23;;;;;;;19.08;42.43;98740.38;5049228;28;20240;-26
2024/01/12 09:15:46;;;;;;;11.80;10.53;;;;;;;19.05;42.44;98732.56;5053548;28;20209;-27
2024/01/12 09:18:13;;;;;;;11.77;10.57;;;;;;;19.02;42.43;98742.56;5053117;28;20259;-26
2024/01/12 09:20:40;;;;;;;11.97;10.77;;;;;;;19.00;42.63;98744.13;5053199;28;20227;-28
2024/01/12 09:23:06;;;;;;;11.70;10.37;;;;;;;19.00;42.63;98749.25;5053011;28;20205;-27
2024/01/12 09:25:33;;;;;;;12.10;10.90;;;;;;;19.02;42.24;98747.66;5053144;28;20205;-26
2024/01/12 09:28:00;;;;;;;12.13;10.80;;;;;;;19.04;42.29;98740.97;5053431;28;20212;-26
2024/01/12 09:30:27;;;;;;;11.87;10.67;;;;;;;19.06;41.67;98751.25;5045187;28;20217;-27
2024/01/12 09:32:53;;;;;;;11.87;10.73;;;;;;;19.07;42.30;98753.88;5053040;28;20240;-26
2024/01/12 09:35:20;;;;;;;13.37;11.57;;;;;;;19.07;42.33;98751.34;5052715;28;20745;-27
2024/01/12 09:37:47;;;;;;;11.87;10.57;;;;;;;19.09;42.04;98752.31;5052920;28;20204;-26
2024/01/12 09:40:14;;;;;;;11.97;10.70;;;;;;;19.09;42.01;98754.88;5052936;28;20233;-26
2024/01/12 09:42:42;;;;;;;13.17;10.80;;;;;;;19.11;42.23;98760.06;5052855;28;20659;-28
2024/01/12 09:45:11;;;;;;;11.60;10.40;;;;;;;19.11;42.15;98762.59;5052827;28;20205;-28
2024/01/12 09:47:48;;;;;;;10.80;9.77;;;;;;;19.12;42.36;98761.78;5051664;28;20209;-27
2024/01/12 09:50:15;;;;;;;11.43;10.30;;;;;;;19.07;42.42;98746.25;5052323;28;20275;-30
2024/01/12 09:52:41;;;;;;;12.27;10.97;;;;;;;19.04;42.11;98746.06;5043462;28;20208;-27
2024/01/12 09:55:08;;;;;;;11.03;9.93;;;;;;;19.03;42.55;98740.88;5049974;28;20701;-29
2024/01/12 09:57:34;;;;;;;11.10;10.00;;;;;;;19.01;42.55;98745.03;5052968;28;20212;-26
2024/01/12 10:00:02;;;;;;;11.13;9.57;;;;;;;19.01;42.58;98745.03;5051582;28;20216;-29
2024/01/12 10:02:29;;;;;;;11.30;10.20;;;;;;;19.01;42.42;98747.56;5044710;28;20197;-28
2024/01/12 10:04:56;;;;;;;10.87;9.77;;;;;;;19.04;42.25;98742.66;5052745;28;20209;-27
2024/01/12 10:07:22;;;;;;;11.80;10.53;;;;;;;19.04;42.11;98742.66;5052530;28;20278;-26
2024/01/12 10:09:49;;;;;;;11.40;10.20;;;;;;;18.98;42.40;98720.22;5052230;28;20602;-27
2024/01/12 10:12:16;;;;;;;12.13;10.63;;;;;;;19.06;42.40;98729.22;5052197;28;20228;-29
2024/01/12 10:14:43;;;;;;;10.83;9.77;;;;;;;19.07;42.27;98736.06;5052614;28;20278;-26
2024/01/12 10:17:11;;;;;;;11.90;10.70;;;;;;;19.09;42.22;98731.03;5052194;28;20239;-27
2024/01/12 10:19:37;;;;;;;12.40;10.10;;;;;;;19.09;42.23;98726.84;5034880;28;20213;-26
2024/01/12 10:22:04;;;;;;;11.13;10.03;;;;;;;19.11;42.50;98737.13;5052227;28;20609;-28
2024/01/12 10:24:31;;;;;;;11.37;10.27;;;;;;;19.11;42.06;98735.47;5050938;28;20211;-27
2024/01/12 10:27:00;;;;;;;10.90;9.80;;;;;;;19.11;42.38;98735.47;5051300;28;20251;-26
2024/01/12 10:29:26;;;;;;;11.40;10.20;;;;;;;19.07;42.58;98732.66;5051682;28;20710;-33
2024/01/12 10:31:53;;;;;;;11.43;10.23;;;;;;;19.04;42.55;98747.75;5052295;28;20551;-26
2024/01/12 10:34:20;;;;;;;11.53;9.90;;;;;;;19.02;42.50;98751.88;5052179;28;20209;-27
2024/01/12 10:36:49;;;;;;;11.67;10.33;;;;;;;18.78;42.38;98705.47;5034466;28;20228;-28
2024/01/12 10:39:16;;;;;;;11.37;10.13;;;;;;;18.99;42.47;98744.06;5051713;28;20252;-26
2024/01/12 10:41:42;;;;;;;10.67;9.57;;;;;;;19.02;42.33;98741.69;5034498;28;20408;-26
2024/01/12 10:44:09;;;;;;;12.63;10.50;;;;;;;19.03;42.36;98733.25;5051152;28;20284;-28
2024/01/12 10:46:40;;;;;;;10.57;9.57;;;;;;;19.05;42.57;98721.47;5050995;28;20734;-27
2024/01/12 10:49:20;;;;;;;12.20;10.43;;;;;;;19.07;42.50;98730.09;5052317;28;20232;-27
2024/01/12 10:52:12;;;;;;;11.97;10.50;;;;;;;18.98;42.62;98711.72;5052112;28;20228;-26
2024/01/12 10:54:43;;;;;;;10.73;9.53;;;;;;;19.08;42.34;98716.56;5052001;28;20227;-27
2024/01/12 10:57:10;;;;;;;10.67;9.57;;;;;;;19.06;42.47;98706.28;5050360;28;20266;-28
2024/01/12 10:59:36;;;;;;;10.83;9.67;;;;;;;19.09;42.52;98705.56;5050392;28;20678;-30
2024/01/12 11:02:03;;;;;;;10.10;9.10;;;;;;;19.11;42.30;98704.88;5051635;28;20208;-26
2024/01/12 11:04:30;;;;;;;11.10;9.90;;;;;;;19.13;42.90;98702.41;5034060;28;20891;-30
2024/01/12 11:06:58;;;;;;;10.97;9.87;;;;;;;19.11;42.47;98714.19;5050227;28;20710;-26
2024/01/12 11:09:26;;;;;;;10.53;9.43;;;;;;;19.06;42.60;98706.28;5050146;28;20534;-26
2024/01/12 11:11:57;;;;;;;10.00;9.00;;;;;;;19.01;42.77;98692.38;5051534;28;20192;-26
2024/01/12 11:14:24;;;;;;;10.87;9.60;;;;;;;19.01;42.63;98687.28;5032259;28;20255;-26
2024/01/12 11:16:50;;;;;;;10.30;9.20;;;;;;;19.00;42.56;98680.44;5050161;28;20675;-30